createdAt,value
2023-04-08T00:00:10.353Z,28.33
2023-04-08T00:02:37.300Z,28.17
2023-04-08T00:05:04.440Z,29.02
2023-04-08T00:07:31.392Z,27.77
2023-04-08T00:09:58.018Z,31.48
2023-04-08T00:12:24.710Z,36.83
2023-04-08T00:14:51.372Z,40.15
2023-04-08T00:17:18.129Z,40.50
2023-04-08T00:19:45.146Z,38.78
2023-04-08T00:22:12.014Z,33.58
2023-04-08T00:24:40.564Z,28.15
2023-04-08T00:27:07.242Z,21.70
2023-04-08T00:29:34.245Z,24.90
2023-04-08T00:32:02.136Z,23.92
2023-04-08T00:34:28.812Z,23.45
2023-04-08T00:36:56.391Z,23.27
2023-04-08T00:39:23.106Z,23.98
2023-04-08T00:41:49.751Z,23.45
2023-04-08T00:44:16.630Z,21.15
2023-04-08T00:46:43.690Z,23.00
2023-04-08T00:49:10.534Z,23.33
2023-04-08T00:51:37.235Z,18.38
2023-04-08T00:54:05.833Z,21.15
2023-04-08T00:56:33.222Z,21.08
2023-04-08T00:59:01.167Z,17.63
2023-04-08T01:01:56.647Z,22.67
2023-04-08T01:04:32.945Z,21.70
2023-04-08T01:07:08.830Z,20.98
2023-04-08T01:09:38.545Z,20.52
2023-04-08T01:12:07.863Z,21.38
2023-04-08T01:14:39.257Z,23.00
2023-04-08T01:17:06.552Z,20.27
2023-04-08T01:19:35.677Z,19.95
2023-04-08T01:22:11.685Z,19.67
2023-04-08T01:24:41.025Z,19.95
2023-04-08T01:29:35.424Z,19.35
2023-04-08T01:32:03.382Z,22.00
2023-04-08T01:34:30.618Z,21.08
2023-04-08T01:36:58.633Z,21.25
2023-04-08T01:39:26.188Z,20.95
2023-04-08T01:41:54.141Z,21.85
2023-04-08T01:44:21.937Z,21.08
2023-04-08T01:46:49.480Z,20.17
2023-04-08T01:49:16.624Z,21.40
2023-04-08T01:51:43.971Z,21.02
2023-04-08T01:54:10.784Z,21.05
2023-04-08T01:56:39.806Z,21.95
2023-04-08T01:59:11.157Z,22.75
2023-04-08T02:01:38.644Z,22.60
2023-04-08T02:04:05.742Z,24.73
2023-04-08T02:06:32.736Z,23.52
2023-04-08T02:08:59.979Z,23.67
2023-04-08T02:11:27.105Z,23.50
2023-04-08T02:13:54.041Z,23.83
2023-04-08T02:16:30.706Z,24.60
2023-04-08T02:19:06.082Z,22.17
2023-04-08T02:21:42.777Z,23.50
2023-04-08T02:24:10.504Z,25.77
2023-04-08T02:26:37.589Z,27.50
2023-04-08T02:29:05.892Z,26.17
2023-04-08T02:31:34.072Z,27.60
2023-04-08T02:34:02.180Z,30.67
2023-04-08T02:36:28.887Z,35.72
2023-04-08T02:38:55.799Z,34.60
2023-04-08T02:41:22.430Z,34.53
2023-04-08T02:43:49.090Z,31.52
2023-04-08T02:46:16.016Z,30.55
2023-04-08T02:48:42.801Z,26.33
2023-04-08T02:51:09.498Z,29.02
2023-04-08T02:53:36.133Z,28.42
2023-04-08T02:56:02.897Z,28.42
2023-04-08T02:58:29.517Z,29.42
2023-04-08T03:00:56.319Z,28.70
2023-04-08T03:03:29.705Z,30.25
2023-04-08T03:05:58.475Z,31.38
2023-04-08T03:08:25.913Z,30.35
2023-04-08T03:10:52.603Z,30.63
2023-04-08T03:13:19.275Z,29.80
2023-04-08T03:15:46.361Z,30.17
2023-04-08T03:18:13.188Z,28.88
2023-04-08T03:20:39.925Z,27.02
2023-04-08T03:23:06.702Z,27.27
2023-04-08T03:25:33.378Z,26.90
2023-04-08T03:28:00.084Z,25.85
2023-04-08T03:30:27.098Z,24.55
2023-04-08T03:32:53.930Z,25.02
2023-04-08T03:35:20.668Z,23.48
2023-04-08T03:37:47.475Z,21.30
2023-04-08T03:40:14.199Z,20.02
2023-04-08T03:42:40.888Z,21.17
2023-04-08T03:45:07.992Z,22.23
2023-04-08T03:47:34.936Z,21.75
2023-04-08T03:50:01.672Z,20.25
2023-04-08T03:52:28.383Z,19.70
2023-04-08T03:54:55.058Z,19.98
2023-04-08T03:57:21.750Z,18.83
2023-04-08T03:59:48.492Z,19.05
2023-04-08T04:02:15.512Z,18.65
2023-04-08T04:04:42.332Z,19.45
2023-04-08T04:07:09.120Z,16.45
2023-04-08T04:09:35.773Z,19.63
2023-04-08T04:12:02.531Z,19.35
2023-04-08T04:14:29.198Z,20.83
2023-04-08T04:16:55.982Z,15.35
2023-04-08T04:19:22.644Z,18.70
2023-04-08T04:21:49.337Z,17.65
2023-04-08T04:24:16.066Z,19.42
2023-04-08T04:26:42.836Z,16.35
2023-04-08T04:29:09.464Z,20.58
2023-04-08T04:31:36.248Z,18.77
2023-04-08T04:34:03.025Z,18.00
2023-04-08T04:36:29.734Z,18.20
2023-04-08T04:38:56.915Z,15.80
2023-04-08T04:41:23.606Z,15.13
2023-04-08T04:43:50.594Z,15.43
2023-04-08T04:46:17.422Z,18.58
2023-04-08T04:48:44.270Z,18.40
2023-04-08T04:51:11.524Z,20.27
2023-04-08T04:53:38.214Z,20.42
2023-04-08T04:56:04.920Z,23.90
2023-04-08T04:58:31.843Z,18.42
2023-04-08T05:00:58.495Z,17.80
2023-04-08T05:03:25.265Z,15.65
2023-04-08T05:05:53.157Z,14.63
2023-04-08T05:08:20.434Z,13.45
2023-04-08T05:10:47.111Z,14.55
2023-04-08T05:13:13.891Z,21.02
2023-04-08T05:15:40.643Z,39.20
2023-04-08T05:18:07.399Z,34.25
2023-04-08T05:20:34.174Z,33.00
2023-04-08T05:23:01.721Z,29.15
2023-04-08T05:25:28.463Z,26.90
2023-04-08T05:27:56.066Z,25.98
2023-04-08T05:30:22.826Z,27.38
2023-04-08T05:32:49.524Z,26.95
2023-04-08T05:35:16.287Z,28.30
2023-04-08T05:37:42.954Z,26.42
2023-04-08T05:40:10.118Z,13.18
2023-04-08T05:42:36.817Z,20.30
2023-04-08T05:45:04.103Z,14.35
2023-04-08T05:47:30.811Z,12.75
2023-04-08T05:49:57.441Z,12.48
2023-04-08T05:52:24.112Z,8.63
2023-04-08T05:54:50.847Z,11.18
2023-04-08T05:57:17.511Z,11.88
2023-04-08T05:59:44.227Z,13.05
2023-04-08T06:02:10.993Z,13.05
2023-04-08T06:04:38.031Z,13.23
2023-04-08T06:07:06.104Z,12.60
2023-04-08T06:09:36.555Z,13.52
2023-04-08T06:12:03.343Z,11.77
2023-04-08T06:14:30.023Z,11.32
2023-04-08T06:16:57.473Z,11.13
2023-04-08T06:19:24.967Z,11.57
2023-04-08T06:21:51.762Z,11.98
2023-04-08T06:24:18.505Z,13.65
2023-04-08T06:26:45.158Z,10.50
2023-04-08T06:29:11.912Z,10.85
2023-04-08T06:31:38.790Z,9.50
2023-04-08T06:34:05.714Z,11.20
2023-04-08T06:36:32.341Z,11.00
2023-04-08T06:38:59.174Z,11.23
2023-04-08T06:41:26.083Z,10.65
2023-04-08T06:43:52.785Z,9.68
2023-04-08T06:46:19.534Z,10.07
2023-04-08T06:48:46.310Z,10.43
2023-04-08T06:51:13.151Z,8.75
2023-04-08T06:53:40.051Z,9.32
2023-04-08T06:56:06.986Z,10.10
2023-04-08T06:58:33.675Z,11.57
2023-04-08T07:01:01.471Z,10.90
2023-04-08T07:03:28.408Z,10.77
2023-04-08T07:05:55.262Z,8.85
2023-04-08T07:08:22.035Z,11.07
2023-04-08T07:10:49.129Z,10.10
2023-04-08T07:13:17.514Z,13.43
2023-04-08T07:15:44.288Z,12.13
2023-04-08T07:18:12.240Z,11.23
2023-04-08T07:20:38.916Z,10.13
2023-04-08T07:23:05.658Z,13.52
2023-04-08T07:25:34.559Z,10.35
2023-04-08T07:28:01.515Z,10.30
2023-04-08T07:30:28.243Z,12.13
2023-04-08T07:32:56.641Z,11.05
2023-04-08T07:35:25.469Z,10.60
2023-04-08T07:37:53.268Z,9.25
2023-04-08T07:40:19.983Z,11.57
2023-04-08T07:42:47.031Z,11.05
2023-04-08T07:45:13.730Z,11.60
2023-04-08T07:47:40.697Z,10.00
2023-04-08T07:50:08.304Z,11.10
2023-04-08T07:52:35.427Z,8.40
2023-04-08T07:55:02.691Z,11.35
2023-04-08T07:57:29.551Z,11.57
2023-04-08T07:59:56.475Z,11.93
2023-04-08T08:02:23.457Z,11.63
2023-04-08T08:04:50.392Z,8.93
2023-04-08T08:07:17.113Z,11.40
2023-04-08T08:09:43.825Z,10.93
2023-04-08T08:12:10.542Z,12.27
2023-04-08T08:14:37.271Z,10.82
2023-04-08T08:17:04.408Z,11.25
2023-04-08T08:19:31.098Z,9.52
2023-04-08T08:21:57.828Z,10.73
2023-04-08T08:24:25.920Z,10.95
2023-04-08T08:26:52.662Z,10.32
2023-04-08T08:29:20.938Z,8.98
2023-04-08T08:31:48.661Z,11.45
2023-04-08T08:34:15.657Z,12.95
2023-04-08T08:36:42.368Z,11.63
2023-04-08T08:39:09.062Z,11.98
2023-04-08T08:41:38.688Z,11.50
2023-04-08T08:44:09.359Z,11.23
2023-04-08T08:46:36.134Z,11.68
2023-04-08T08:49:02.959Z,11.88
2023-04-08T08:51:30.276Z,11.35
2023-04-08T08:53:56.913Z,10.80
2023-04-08T08:56:23.621Z,11.25
2023-04-08T08:58:50.318Z,10.90
2023-04-08T09:01:33.267Z,10.45
2023-04-08T09:04:10.769Z,12.05
2023-04-08T09:06:38.822Z,13.40
2023-04-08T09:09:11.525Z,11.73
2023-04-08T09:11:43.626Z,11.20
2023-04-08T09:14:23.184Z,12.25
2023-04-08T09:16:51.242Z,12.35
2023-04-08T09:19:18.222Z,11.85
2023-04-08T09:21:45.092Z,12.45
2023-04-08T09:24:28.897Z,12.10
2023-04-08T09:27:06.315Z,7.90
2023-04-08T09:29:35.677Z,8.27
2023-04-08T09:32:03.730Z,8.85
2023-04-08T09:34:34.247Z,8.30
2023-04-08T09:37:01.564Z,7.07
2023-04-08T09:39:28.249Z,8.52
2023-04-08T09:42:01.156Z,9.07
2023-04-08T09:44:29.285Z,7.85
2023-04-08T09:47:08.897Z,8.32
2023-04-08T09:49:47.017Z,7.43
2023-04-08T09:52:46.066Z,7.55
2023-04-08T09:55:17.932Z,8.90
2023-04-08T09:57:53.229Z,11.05
2023-04-08T10:00:22.272Z,7.65
2023-04-08T10:03:10.917Z,7.45
2023-04-08T10:05:39.770Z,8.60
2023-04-08T10:08:06.839Z,7.90
2023-04-08T10:10:39.030Z,6.80
2023-04-08T10:13:07.263Z,7.45
2023-04-08T10:15:36.177Z,6.78
2023-04-08T10:18:06.368Z,6.93
2023-04-08T10:20:36.188Z,6.75
2023-04-08T10:23:10.207Z,6.40
2023-04-08T10:25:45.304Z,6.75
2023-04-08T10:28:12.230Z,7.82
2023-04-08T10:30:40.142Z,6.90
2023-04-08T10:33:16.306Z,6.45
2023-04-08T10:35:46.709Z,6.68
2023-04-08T10:38:14.693Z,9.80
2023-04-08T10:40:42.942Z,6.97
2023-04-08T10:43:13.967Z,8.35
2023-04-08T10:45:41.666Z,9.00
2023-04-08T10:48:25.146Z,7.00
2023-04-08T10:51:02.263Z,7.47
2023-04-08T10:53:31.512Z,7.53
2023-04-08T10:58:32.839Z,7.47
2023-04-08T11:01:07.558Z,6.63
2023-04-08T11:03:35.682Z,6.80
2023-04-08T11:06:03.505Z,5.82
2023-04-08T11:08:32.457Z,6.10
2023-04-08T11:11:01.697Z,5.93
2023-04-08T11:15:56.945Z,6.10
2023-04-08T11:18:23.787Z,6.43
2023-04-08T11:20:51.493Z,6.32
2023-04-08T11:23:18.711Z,6.70
2023-04-08T11:25:46.924Z,6.38
2023-04-08T11:28:17.102Z,6.30
2023-04-08T11:30:44.094Z,7.90
2023-04-08T11:33:11.207Z,7.68
2023-04-08T11:35:42.010Z,7.07
2023-04-08T11:38:09.585Z,6.28
2023-04-08T11:40:36.364Z,5.47
2023-04-08T11:43:10.936Z,6.85
2023-04-08T11:45:41.717Z,7.63
2023-04-08T11:48:11.932Z,5.75
2023-04-08T11:50:38.679Z,6.15
2023-04-08T11:53:05.345Z,4.82
2023-04-08T11:55:32.989Z,6.10
2023-04-08T11:58:04.605Z,5.95
2023-04-08T12:00:31.384Z,5.38
2023-04-08T12:02:58.263Z,5.78
2023-04-08T12:05:25.082Z,6.10
2023-04-08T12:07:51.957Z,5.57
2023-04-08T12:10:18.796Z,5.70
2023-04-08T12:12:45.489Z,5.75
2023-04-08T12:15:12.424Z,6.50
2023-04-08T12:17:39.133Z,6.72
2023-04-08T12:20:06.724Z,5.95
2023-04-08T12:22:33.759Z,6.03
2023-04-08T12:25:00.548Z,5.85
2023-04-08T12:27:27.209Z,5.88
2023-04-08T12:29:53.932Z,6.03
2023-04-08T12:32:20.740Z,5.75
2023-04-08T12:34:47.719Z,6.43
2023-04-08T12:37:14.386Z,6.03
2023-04-08T12:39:41.082Z,5.90
2023-04-08T12:42:07.901Z,8.32
2023-04-08T12:44:34.656Z,8.05
2023-04-08T12:47:01.431Z,5.28
2023-04-08T12:49:28.240Z,6.38
2023-04-08T12:51:55.134Z,6.10
2023-04-08T12:54:22.131Z,6.28
2023-04-08T12:56:49.025Z,7.03
2023-04-08T12:59:16.059Z,7.22
2023-04-08T13:01:42.922Z,6.15
2023-04-08T13:04:09.731Z,5.60
2023-04-08T13:06:36.456Z,5.88
2023-04-08T13:09:03.220Z,6.72
2023-04-08T13:11:29.926Z,6.38
2023-04-08T13:13:56.846Z,4.95
2023-04-08T13:16:23.573Z,5.93
2023-04-08T13:18:50.767Z,7.65
2023-04-08T13:21:17.609Z,6.75
2023-04-08T13:23:44.319Z,7.07
2023-04-08T13:26:11.267Z,7.80
2023-04-08T13:28:49.756Z,6.07
2023-04-08T13:31:23.074Z,6.75
2023-04-08T13:33:49.787Z,6.07
2023-04-08T13:36:16.493Z,5.38
2023-04-08T13:38:43.830Z,5.07
2023-04-08T13:41:10.503Z,5.55
2023-04-08T13:43:37.454Z,5.75
2023-04-08T13:46:04.161Z,6.07
2023-04-08T13:48:30.943Z,4.18
2023-04-08T13:50:57.583Z,7.80
2023-04-08T13:53:24.399Z,6.55
2023-04-08T13:55:55.207Z,6.65
2023-04-08T13:58:24.217Z,5.90
2023-04-08T14:00:51.938Z,5.85
2023-04-08T14:03:19.366Z,3.88
2023-04-08T14:05:46.243Z,4.63
2023-04-08T14:08:13.907Z,4.55
2023-04-08T14:10:42.341Z,5.47
2023-04-08T14:13:09.220Z,5.10
2023-04-08T14:15:36.217Z,5.63
2023-04-08T14:18:03.231Z,6.65
2023-04-08T14:20:30.132Z,5.47
2023-04-08T14:22:56.959Z,6.85
2023-04-08T14:25:24.224Z,5.10
2023-04-08T14:27:58.313Z,4.38
2023-04-08T14:30:27.159Z,4.68
2023-04-08T14:32:54.411Z,5.72
2023-04-08T14:35:21.724Z,5.25
2023-04-08T14:37:48.462Z,5.32
2023-04-08T14:40:15.158Z,4.10
2023-04-08T14:42:42.118Z,4.85
2023-04-08T14:45:09.252Z,4.40
2023-04-08T14:47:36.005Z,4.57
2023-04-08T14:50:02.826Z,5.28
2023-04-08T14:52:29.571Z,4.32
2023-04-08T14:54:56.383Z,4.47
2023-04-08T14:57:23.043Z,4.75
2023-04-08T14:59:49.824Z,4.00
2023-04-08T15:02:16.685Z,5.85
2023-04-08T15:04:43.416Z,5.38
2023-04-08T15:07:10.078Z,4.25
2023-04-08T15:09:36.753Z,5.88
2023-04-08T15:12:03.703Z,5.38
2023-04-08T15:14:30.441Z,5.60
2023-04-08T15:16:57.127Z,4.43
2023-04-08T15:19:23.942Z,5.60
2023-04-08T15:21:50.722Z,5.68
2023-04-08T15:24:17.532Z,5.40
2023-04-08T15:26:44.194Z,5.63
2023-04-08T15:29:11.069Z,8.75
2023-04-08T15:31:37.916Z,6.05
2023-04-08T15:34:04.764Z,4.65
2023-04-08T15:36:31.486Z,4.38
2023-04-08T15:38:58.175Z,3.88
2023-04-08T15:41:24.916Z,8.55
2023-04-08T15:43:53.231Z,4.68
2023-04-08T15:46:21.037Z,4.97
2023-04-08T15:48:48.463Z,5.15
2023-04-08T15:51:15.463Z,5.18
2023-04-08T15:53:42.557Z,4.95
2023-04-08T15:56:14.296Z,4.32
2023-04-08T15:58:41.194Z,4.75
2023-04-08T16:01:08.334Z,4.35
2023-04-08T16:03:35.179Z,4.45
2023-04-08T16:06:02.085Z,4.10
2023-04-08T16:08:29.134Z,4.05
2023-04-08T16:11:03.499Z,4.70
2023-04-08T16:13:30.341Z,5.13
2023-04-08T16:15:58.245Z,4.70
2023-04-08T16:18:25.949Z,6.03
2023-04-08T16:20:52.934Z,4.15
2023-04-08T16:23:19.710Z,4.88
2023-04-08T16:25:46.757Z,5.15
2023-04-08T16:28:13.495Z,5.38
2023-04-08T16:30:43.547Z,5.20
2023-04-08T16:33:11.415Z,5.03
2023-04-08T16:35:38.721Z,5.22
2023-04-08T16:38:06.265Z,5.53
2023-04-08T16:40:33.615Z,3.70
2023-04-08T16:43:01.196Z,4.50
2023-04-08T16:45:31.603Z,5.05
2023-04-08T16:47:58.694Z,5.95
2023-04-08T16:50:26.014Z,4.65
2023-04-08T16:52:52.714Z,5.65
2023-04-08T16:55:19.825Z,5.60
2023-04-08T16:57:46.758Z,8.02
2023-04-08T17:00:13.850Z,6.18
2023-04-08T17:02:40.899Z,4.45
2023-04-08T17:05:08.169Z,3.85
2023-04-08T17:07:34.841Z,5.78
2023-04-08T17:10:01.590Z,6.43
2023-04-08T17:12:28.330Z,4.35
2023-04-08T17:14:55.033Z,5.05
2023-04-08T17:17:21.766Z,4.63
2023-04-08T17:19:48.630Z,7.10
2023-04-08T17:22:15.324Z,8.23
2023-04-08T17:24:42.084Z,5.15
2023-04-08T17:27:08.764Z,5.80
2023-04-08T17:29:35.791Z,5.78
2023-04-08T17:32:02.714Z,6.10
2023-04-08T17:34:31.366Z,9.80
2023-04-08T17:36:58.057Z,15.02
2023-04-08T17:39:24.872Z,13.82
2023-04-08T17:41:51.568Z,6.68
2023-04-08T17:44:18.320Z,6.90
2023-04-08T17:46:45.011Z,5.65
2023-04-08T17:49:12.903Z,5.68
2023-04-08T17:51:39.778Z,5.78
2023-04-08T17:54:06.438Z,7.45
2023-04-08T17:56:33.471Z,10.18
2023-04-08T17:59:00.454Z,7.53
2023-04-08T18:01:27.358Z,11.35
2023-04-08T18:03:54.532Z,8.15
2023-04-08T18:06:21.506Z,9.23
2023-04-08T18:08:48.453Z,7.57
2023-04-08T18:11:15.560Z,7.10
2023-04-08T18:13:42.281Z,10.85
2023-04-08T18:16:19.115Z,13.15
2023-04-08T18:18:46.301Z,15.00
2023-04-08T18:21:15.099Z,16.63
2023-04-08T18:23:42.133Z,15.95
2023-04-08T18:26:09.364Z,15.77
2023-04-08T18:28:36.411Z,16.60
2023-04-08T18:31:03.172Z,14.48
2023-04-08T18:33:29.923Z,13.65
2023-04-08T18:35:59.575Z,13.65
2023-04-08T18:38:26.579Z,13.05
2023-04-08T18:40:53.275Z,14.60
2023-04-08T18:43:19.914Z,15.82
2023-04-08T18:45:46.671Z,15.73
2023-04-08T18:48:13.479Z,15.02
2023-04-08T18:50:40.484Z,14.40
2023-04-08T18:53:08.023Z,15.02
2023-04-08T18:55:53.584Z,14.02
2023-04-08T18:58:20.494Z,13.65
2023-04-08T19:00:47.173Z,17.10
2023-04-08T19:03:14.058Z,13.40
2023-04-08T19:05:41.020Z,12.50
2023-04-08T19:08:07.694Z,15.45
2023-04-08T19:10:34.764Z,12.70
2023-04-08T19:13:01.811Z,13.43
2023-04-08T19:15:29.176Z,14.05
2023-04-08T19:17:56.524Z,13.88
2023-04-08T19:20:23.523Z,12.00
2023-04-08T19:22:50.447Z,11.65
2023-04-08T19:25:17.615Z,12.45
2023-04-08T19:27:46.014Z,12.93
2023-04-08T19:30:13.146Z,12.25
2023-04-08T19:32:40.123Z,12.07
2023-04-08T19:35:07.517Z,11.73
2023-04-08T19:37:34.271Z,11.00
2023-04-08T19:40:01.151Z,12.60
2023-04-08T19:42:27.871Z,12.45
2023-04-08T19:44:55.178Z,13.88
2023-04-08T19:47:22.195Z,13.52
2023-04-08T19:49:48.902Z,12.57
2023-04-08T19:52:15.558Z,15.63
2023-04-08T19:54:43.650Z,13.82
2023-04-08T19:57:11.043Z,12.77
2023-04-08T19:59:38.206Z,11.02
2023-04-08T20:02:05.085Z,11.75
2023-04-08T20:04:32.174Z,11.77
2023-04-08T20:07:02.527Z,11.32
2023-04-08T20:09:30.818Z,11.10
2023-04-08T20:12:04.243Z,10.35
2023-04-08T20:14:31.115Z,10.77
2023-04-08T20:16:58.074Z,11.75
2023-04-08T20:19:25.487Z,11.38
2023-04-08T20:21:52.239Z,11.95
2023-04-08T20:24:18.928Z,13.20
2023-04-08T20:26:45.730Z,14.02
2023-04-08T20:29:12.411Z,12.65
2023-04-08T20:31:39.781Z,13.90
2023-04-08T20:34:06.477Z,13.77
2023-04-08T20:36:34.340Z,14.98
2023-04-08T20:39:01.002Z,16.30
2023-04-08T20:41:27.759Z,14.75
2023-04-08T20:43:54.586Z,15.60
2023-04-08T20:46:21.342Z,16.75
2023-04-08T20:48:48.129Z,13.60
2023-04-08T20:51:14.892Z,15.55
2023-04-08T20:53:43.210Z,16.27
2023-04-08T20:56:11.383Z,17.67
2023-04-08T20:58:38.135Z,16.88
2023-04-08T21:01:04.918Z,16.33
2023-04-08T21:03:32.757Z,16.75
2023-04-08T21:05:59.480Z,16.38
2023-04-08T21:08:26.244Z,16.27
2023-04-08T21:10:54.257Z,15.70
2023-04-08T21:13:21.185Z,17.13
2023-04-08T21:15:47.873Z,16.27
2023-04-08T21:18:14.552Z,17.65
2023-04-08T21:20:41.326Z,17.83
2023-04-08T21:23:08.308Z,17.60
2023-04-08T21:25:34.954Z,17.90
2023-04-08T21:28:01.667Z,18.42
2023-04-08T21:30:28.309Z,18.67
2023-04-08T21:32:55.040Z,18.85
2023-04-08T21:35:21.816Z,18.98
2023-04-08T21:37:48.502Z,21.75
2023-04-08T21:40:15.164Z,20.70
2023-04-08T21:42:42.105Z,21.55
2023-04-08T21:45:09.486Z,21.20
2023-04-08T21:47:36.147Z,20.80
2023-04-08T21:50:03.136Z,19.20
2023-04-08T21:52:30.189Z,18.67
2023-04-08T21:54:56.844Z,18.88
2023-04-08T21:57:23.466Z,19.15
2023-04-08T21:59:50.227Z,20.10
2023-04-08T22:02:17.022Z,20.95
2023-04-08T22:04:44.780Z,21.23
2023-04-08T22:07:11.510Z,20.40
2023-04-08T22:09:38.210Z,19.23
2023-04-08T22:12:05.388Z,21.40
2023-04-08T22:14:32.050Z,19.35
2023-04-08T22:16:58.744Z,19.05
2023-04-08T22:19:25.581Z,17.45
2023-04-08T22:21:52.238Z,17.42
2023-04-08T22:24:19.434Z,17.60
2023-04-08T22:26:46.110Z,17.67
2023-04-08T22:29:12.912Z,17.00
2023-04-08T22:31:39.614Z,18.13
2023-04-08T22:34:06.401Z,18.92
2023-04-08T22:36:33.297Z,18.23
2023-04-08T22:38:59.954Z,17.63
2023-04-08T22:41:26.562Z,16.65
2023-04-08T22:43:53.205Z,17.88
2023-04-08T22:46:20.204Z,18.92
2023-04-08T22:48:47.762Z,19.77
2023-04-08T22:51:14.424Z,19.90
2023-04-08T22:53:41.201Z,20.92
2023-04-08T22:56:07.842Z,21.67
2023-04-08T22:58:34.508Z,22.83
2023-04-08T23:01:02.490Z,26.92
2023-04-08T23:03:29.198Z,29.92
2023-04-08T23:05:55.949Z,29.40
2023-04-08T23:08:22.631Z,27.85
2023-04-08T23:10:49.304Z,28.02
2023-04-08T23:13:16.015Z,23.63
2023-04-08T23:15:42.678Z,22.38
2023-04-08T23:18:09.387Z,17.52
2023-04-08T23:20:36.153Z,16.83
2023-04-08T23:23:03.619Z,18.33
2023-04-08T23:25:30.462Z,17.27
2023-04-08T23:27:57.543Z,18.42
2023-04-08T23:30:24.240Z,15.85
2023-04-08T23:32:51.103Z,15.80
2023-04-08T23:35:17.951Z,19.02
2023-04-08T23:37:44.621Z,20.38
2023-04-08T23:40:11.553Z,22.45
2023-04-08T23:42:38.236Z,22.48
2023-04-08T23:45:06.166Z,23.15
2023-04-08T23:47:32.879Z,28.95
2023-04-08T23:49:59.649Z,30.02
2023-04-08T23:52:26.308Z,29.52
2023-04-08T23:54:52.969Z,27.02
2023-04-08T23:57:20.431Z,24.08
2023-04-08T23:59:47.710Z,29.90
